createdAt,value
2019-06-07T00:00:35.088Z,3.98
2019-06-07T00:02:43.332Z,3.87
2019-06-07T00:05:13.308Z,3.95
2019-06-07T00:07:42.392Z,4.17
2019-06-07T00:10:30.219Z,4.22
2019-06-07T00:12:42.203Z,4.12
2019-06-07T00:15:15.416Z,4.00
2019-06-07T00:17:41.413Z,4.30
2019-06-07T00:20:15.110Z,4.28
2019-06-07T00:22:41.568Z,3.70
2019-06-07T00:25:15.109Z,3.77
2019-06-07T00:27:41.600Z,4.08
2019-06-07T00:30:34.910Z,4.22
2019-06-07T00:32:41.095Z,4.28
2019-06-07T00:35:11.709Z,3.77
2019-06-07T00:37:40.481Z,3.75
2019-06-07T00:40:16.474Z,4.22
2019-06-07T00:42:40.067Z,4.15
2019-06-07T00:45:11.248Z,4.45
2019-06-07T00:47:39.679Z,4.42
2019-06-07T00:50:08.584Z,4.80
2019-06-07T00:55:08.701Z,4.45
2019-06-07T00:57:37.684Z,4.28
2019-06-07T01:00:07.684Z,4.33
2019-06-07T01:02:36.425Z,4.53
2019-06-07T01:05:08.415Z,4.90
2019-06-07T01:07:37.112Z,4.15
2019-06-07T01:10:08.607Z,4.35
2019-06-07T01:12:37.247Z,4.58
2019-06-07T01:15:07.142Z,4.83
2019-06-07T01:17:50.017Z,4.67
2019-06-07T01:20:10.511Z,4.60
2019-06-07T01:22:39.159Z,4.20
2019-06-07T01:25:08.271Z,4.17
2019-06-07T01:27:36.954Z,3.98
2019-06-07T01:30:08.528Z,4.83
2019-06-07T01:32:37.047Z,4.67
2019-06-07T01:35:07.058Z,3.90
2019-06-07T01:37:35.645Z,4.50
2019-06-07T01:40:07.327Z,4.20
2019-06-07T01:42:35.951Z,4.22
2019-06-07T01:45:10.631Z,4.42
2019-06-07T01:47:39.389Z,4.05
2019-06-07T01:50:09.160Z,4.05
2019-06-07T01:52:37.884Z,3.98
2019-06-07T01:55:07.093Z,4.50
2019-06-07T01:57:47.621Z,4.30
2019-06-07T02:00:07.857Z,3.87
2019-06-07T02:02:36.555Z,4.30
2019-06-07T02:05:09.513Z,4.25
2019-06-07T02:07:38.193Z,4.65
2019-06-07T02:10:07.529Z,4.78
2019-06-07T02:12:43.163Z,4.20
2019-06-07T02:15:08.586Z,4.80
2019-06-07T02:17:37.588Z,3.80
2019-06-07T02:20:07.305Z,4.55
2019-06-07T02:22:35.843Z,4.90
2019-06-07T02:25:35.205Z,4.62
2019-06-07T02:27:36.352Z,4.47
2019-06-07T02:30:36.728Z,4.97
2019-06-07T02:32:37.228Z,4.75
2019-06-07T02:35:06.577Z,4.80
2019-06-07T02:37:36.869Z,4.33
2019-06-07T02:40:07.890Z,5.08
2019-06-07T02:42:42.086Z,5.05
2019-06-07T02:45:10.884Z,5.53
2019-06-07T02:47:39.726Z,5.25
2019-06-07T02:50:13.857Z,5.10
2019-06-07T02:52:42.552Z,5.05
2019-06-07T02:55:12.461Z,5.25
2019-06-07T02:57:42.562Z,4.92
2019-06-07T03:00:51.433Z,5.10
2019-06-07T03:02:44.319Z,4.62
2019-06-07T03:05:13.232Z,5.10
2019-06-07T03:07:45.344Z,4.90
2019-06-07T03:10:13.294Z,5.33
2019-06-07T03:12:44.340Z,5.65
2019-06-07T03:15:32.142Z,5.62
2019-06-07T03:17:48.967Z,5.72
2019-06-07T03:20:22.428Z,5.40
2019-06-07T03:22:51.739Z,5.00
2019-06-07T03:25:20.523Z,5.37
2019-06-07T03:27:50.598Z,5.12
2019-06-07T03:30:42.810Z,5.85
2019-06-07T03:32:50.009Z,5.85
2019-06-07T03:35:18.719Z,5.35
2019-06-07T03:37:47.191Z,5.72
2019-06-07T03:40:15.780Z,5.75
2019-06-07T03:42:44.798Z,5.53
2019-06-07T03:45:13.527Z,5.67
2019-06-07T03:47:43.190Z,5.67
2019-06-07T03:50:12.367Z,6.30
2019-06-07T03:52:41.806Z,6.12
2019-06-07T03:55:10.828Z,5.62
2019-06-07T03:58:29.352Z,5.72
2019-06-07T04:00:10.187Z,5.65
2019-06-07T04:02:42.002Z,5.87
2019-06-07T04:05:09.093Z,6.10
2019-06-07T04:07:43.413Z,5.67
2019-06-07T04:10:08.127Z,5.58
2019-06-07T04:12:41.206Z,6.37
2019-06-07T04:15:07.661Z,5.97
2019-06-07T04:17:39.298Z,5.50
2019-06-07T04:20:07.171Z,6.22
2019-06-07T04:22:39.581Z,5.87
2019-06-07T04:25:10.351Z,5.80
2019-06-07T04:27:41.075Z,6.05
2019-06-07T04:30:10.619Z,5.87
2019-06-07T04:32:44.365Z,5.15
2019-06-07T04:35:09.984Z,5.25
2019-06-07T04:37:41.209Z,5.85
2019-06-07T04:40:09.163Z,6.03
2019-06-07T04:42:44.516Z,5.33
2019-06-07T04:45:32.332Z,5.83
2019-06-07T04:47:42.636Z,5.00
2019-06-07T04:50:12.266Z,5.42
2019-06-07T04:52:44.902Z,6.00
2019-06-07T04:55:11.275Z,5.50
2019-06-07T04:57:43.006Z,6.03
2019-06-07T05:00:34.200Z,6.15
2019-06-07T05:02:43.465Z,5.55
2019-06-07T05:05:11.565Z,5.72
2019-06-07T05:07:45.820Z,6.15
2019-06-07T05:10:10.822Z,6.22
2019-06-07T05:12:43.669Z,6.42
2019-06-07T05:15:09.747Z,6.22
2019-06-07T05:17:42.445Z,6.75
2019-06-07T05:20:08.659Z,6.67
2019-06-07T05:22:42.051Z,7.05
2019-06-07T05:25:07.564Z,6.70
2019-06-07T05:27:38.582Z,6.45
2019-06-07T05:30:36.544Z,6.75
2019-06-07T05:32:43.629Z,6.05
2019-06-07T05:35:11.095Z,6.58
2019-06-07T05:37:41.780Z,6.78
2019-06-07T05:40:10.441Z,7.35
2019-06-07T05:42:43.145Z,6.35
2019-06-07T05:45:10.171Z,7.15
2019-06-07T05:47:44.433Z,6.80
2019-06-07T05:50:37.849Z,6.33
2019-06-07T05:52:43.870Z,6.87
2019-06-07T05:55:09.984Z,7.17
2019-06-07T05:57:44.551Z,7.22
2019-06-07T06:00:09.221Z,6.25
2019-06-07T06:02:58.598Z,6.20
2019-06-07T06:05:08.107Z,6.50
2019-06-07T06:07:41.060Z,6.08
2019-06-07T06:10:08.666Z,5.75
2019-06-07T06:12:40.908Z,5.97
2019-06-07T06:15:08.547Z,5.85
2019-06-07T06:17:40.905Z,5.60
2019-06-07T06:20:08.551Z,5.80
2019-06-07T06:22:39.704Z,5.33
2019-06-07T06:28:07.771Z,5.85
2019-06-07T06:30:12.125Z,6.20
2019-06-07T06:32:46.692Z,6.10
2019-06-07T06:35:11.195Z,5.70
2019-06-07T06:37:42.635Z,5.20
2019-06-07T06:40:11.056Z,5.58
2019-06-07T06:42:39.833Z,4.00
2019-06-07T06:45:10.234Z,4.58
2019-06-07T06:47:40.540Z,5.42
2019-06-07T06:50:10.388Z,9.78
2019-06-07T06:52:42.250Z,4.97
2019-06-07T06:55:11.371Z,9.03
2019-06-07T06:57:41.406Z,9.13
2019-06-07T07:00:12.886Z,4.58
2019-06-07T07:03:34.957Z,3.50
2019-06-07T07:05:12.491Z,3.42
2019-06-07T07:07:42.755Z,3.30
2019-06-07T07:10:11.661Z,4.92
2019-06-07T07:12:40.610Z,4.05
2019-06-07T07:15:12.439Z,3.50
2019-06-07T07:17:56.682Z,3.17
2019-06-07T07:20:12.478Z,3.15
2019-06-07T07:22:42.808Z,3.35
2019-06-07T07:25:11.646Z,2.92
2019-06-07T07:27:40.586Z,3.22
2019-06-07T07:30:36.143Z,3.08
2019-06-07T07:32:40.092Z,3.08
2019-06-07T07:35:08.814Z,2.90
2019-06-07T07:37:37.543Z,3.20
2019-06-07T07:40:54.863Z,3.08
2019-06-07T07:42:37.479Z,2.87
2019-06-07T07:45:06.616Z,2.90
2019-06-07T07:47:35.168Z,2.70
2019-06-07T07:50:07.374Z,3.17
2019-06-07T07:52:36.088Z,2.62
2019-06-07T07:55:05.456Z,3.05
2019-06-07T07:57:34.160Z,2.98
2019-06-07T08:00:36.921Z,2.80
2019-06-07T08:02:33.269Z,2.75
2019-06-07T08:05:28.787Z,2.75
2019-06-07T08:07:32.242Z,3.17
2019-06-07T08:10:03.888Z,3.10
2019-06-07T08:12:54.743Z,2.90
2019-06-07T08:15:03.502Z,2.92
2019-06-07T08:17:32.035Z,2.87
2019-06-07T08:20:02.928Z,2.77
2019-06-07T08:22:30.995Z,2.83
2019-06-07T08:25:04.012Z,2.90
2019-06-07T08:27:29.930Z,2.92
2019-06-07T08:30:15.972Z,2.83
2019-06-07T08:32:28.919Z,2.95
2019-06-07T08:35:05.583Z,2.65
2019-06-07T08:38:13.530Z,2.45
2019-06-07T08:39:59.739Z,3.08
2019-06-07T08:42:36.982Z,2.92
2019-06-07T08:45:03.717Z,2.65
2019-06-07T08:47:28.983Z,2.85
2019-06-07T08:50:02.784Z,2.80
2019-06-07T08:52:27.814Z,3.25
2019-06-07T08:54:57.821Z,2.47
2019-06-07T08:57:26.605Z,2.70
2019-06-07T08:59:56.620Z,2.98
2019-06-07T09:02:25.984Z,2.72
2019-06-07T09:04:59.215Z,2.90
2019-06-07T09:07:25.074Z,2.27
2019-06-07T09:09:58.585Z,2.17
2019-06-07T09:12:24.027Z,2.35
2019-06-07T09:15:09.022Z,1.62
2019-06-07T09:17:22.819Z,1.98
2019-06-07T09:19:51.448Z,1.62
2019-06-07T09:22:20.120Z,1.72
2019-06-07T09:24:48.696Z,1.80
2019-06-07T09:27:17.407Z,1.95
2019-06-07T09:29:46.892Z,2.00
2019-06-07T09:32:18.350Z,1.92
2019-06-07T09:34:45.827Z,2.42
2019-06-07T09:38:03.037Z,2.17
2019-06-07T09:39:45.189Z,2.25
2019-06-07T09:42:14.264Z,2.47
2019-06-07T09:44:42.951Z,2.17
2019-06-07T09:47:30.691Z,2.08
2019-06-07T09:49:42.148Z,2.25
2019-06-07T09:52:11.237Z,1.98
2019-06-07T09:55:05.837Z,1.92
2019-06-07T09:57:16.662Z,2.17
2019-06-07T09:59:40.547Z,1.92
2019-06-07T10:02:13.520Z,2.15
2019-06-07T10:04:39.626Z,2.25
2019-06-07T10:07:28.120Z,2.17
2019-06-07T10:12:08.965Z,2.45
2019-06-07T10:14:37.504Z,2.08
2019-06-07T10:17:07.367Z,2.33
2019-06-07T10:19:36.219Z,2.15
2019-06-07T10:22:05.737Z,2.00
2019-06-07T10:24:34.573Z,1.82
2019-06-07T10:27:04.045Z,2.52
2019-06-07T10:29:32.805Z,2.15
2019-06-07T10:32:02.298Z,2.10
2019-06-07T10:34:31.050Z,2.00
2019-06-07T10:37:03.012Z,1.72
2019-06-07T10:39:30.139Z,2.70
2019-06-07T10:41:59.082Z,2.00
2019-06-07T10:44:27.679Z,2.33
2019-06-07T10:46:59.147Z,2.22
2019-06-07T10:49:26.557Z,2.12
2019-06-07T10:51:55.203Z,2.20
2019-06-07T10:54:29.563Z,2.52
2019-06-07T10:56:54.191Z,2.30
2019-06-07T10:59:22.819Z,1.98
2019-06-07T11:01:51.495Z,1.90
2019-06-07T11:04:20.203Z,2.10
2019-06-07T11:06:48.815Z,2.25
2019-06-07T11:09:17.396Z,1.80
2019-06-07T11:11:46.036Z,2.15
2019-06-07T11:14:14.813Z,2.00
2019-06-07T11:16:43.525Z,2.00
2019-06-07T11:19:15.671Z,1.90
2019-06-07T11:21:42.459Z,1.47
2019-06-07T11:24:12.310Z,2.00
2019-06-07T11:26:41.176Z,2.00
2019-06-07T11:29:10.865Z,1.80
2019-06-07T11:31:39.828Z,2.33
2019-06-07T11:34:08.591Z,1.82
2019-06-07T11:36:37.338Z,2.30
2019-06-07T11:39:08.545Z,2.05
2019-06-07T11:41:37.364Z,1.92
2019-06-07T11:44:06.671Z,1.60
2019-06-07T11:46:35.512Z,1.98
2019-06-07T11:49:04.295Z,1.50
2019-06-07T11:51:32.887Z,1.80
2019-06-07T11:54:01.634Z,1.87
2019-06-07T11:56:30.334Z,2.05
2019-06-07T11:58:58.969Z,1.62
2019-06-07T12:01:27.702Z,1.60
2019-06-07T12:03:58.838Z,1.60
2019-06-07T12:06:26.795Z,1.90
2019-06-07T12:08:55.571Z,1.67
2019-06-07T12:11:24.366Z,2.08
2019-06-07T12:13:53.003Z,2.10
2019-06-07T12:16:21.657Z,1.52
2019-06-07T12:18:50.298Z,2.08
2019-06-07T12:21:19.897Z,1.47
2019-06-07T12:23:48.683Z,1.70
2019-06-07T12:26:18.540Z,1.72
2019-06-07T12:28:47.542Z,1.60
2019-06-07T12:31:17.169Z,1.67
2019-06-07T12:33:45.868Z,1.55
2019-06-07T12:36:15.802Z,1.85
2019-06-07T12:38:44.536Z,1.72
2019-06-07T12:41:14.071Z,1.80
2019-06-07T12:43:42.995Z,1.72
2019-06-07T12:46:15.319Z,2.25
2019-06-07T12:48:41.693Z,1.72
2019-06-07T12:51:10.519Z,1.30
2019-06-07T12:53:39.211Z,1.15
2019-06-07T12:56:07.965Z,1.57
2019-06-07T12:58:39.429Z,1.42
2019-06-07T13:01:06.794Z,1.30
2019-06-07T13:03:35.438Z,1.65
2019-06-07T13:06:04.412Z,1.30
2019-06-07T13:08:33.044Z,1.40
2019-06-07T13:11:14.752Z,1.80
2019-06-07T13:13:31.875Z,1.30
2019-06-07T13:16:00.617Z,1.35
2019-06-07T13:18:29.343Z,1.45
2019-06-07T13:20:57.844Z,1.32
2019-06-07T13:23:26.436Z,1.35
2019-06-07T13:25:55.018Z,1.57
2019-06-07T13:28:24.733Z,1.32
2019-06-07T13:30:53.539Z,1.50
2019-06-07T13:33:23.625Z,1.70
2019-06-07T13:35:52.448Z,1.67
2019-06-07T13:38:28.863Z,1.40
2019-06-07T13:40:57.744Z,1.55
2019-06-07T13:43:28.024Z,1.55
2019-06-07T13:45:56.831Z,1.57
2019-06-07T13:48:25.638Z,1.45
2019-06-07T13:50:54.351Z,1.30
2019-06-07T13:53:22.993Z,1.15
2019-06-07T13:55:51.810Z,1.27
2019-06-07T13:58:21.251Z,1.27
2019-06-07T14:00:50.793Z,1.32
2019-06-07T14:03:22.497Z,1.45
2019-06-07T14:05:49.807Z,1.65
2019-06-07T14:08:19.042Z,1.40
2019-06-07T14:10:48.002Z,1.70
2019-06-07T14:13:16.752Z,1.57
2019-06-07T14:15:45.436Z,1.95
2019-06-07T14:18:14.172Z,1.60
2019-06-07T14:20:42.866Z,1.57
2019-06-07T14:23:11.506Z,2.22
2019-06-07T14:25:40.220Z,1.90
2019-06-07T14:28:11.510Z,1.70
2019-06-07T14:30:39.246Z,1.70
2019-06-07T14:33:07.884Z,1.60
2019-06-07T14:35:36.886Z,1.90
2019-06-07T14:38:05.518Z,1.70
2019-06-07T14:40:34.235Z,1.55
2019-06-07T14:43:02.860Z,1.57
2019-06-07T14:45:32.715Z,1.55
2019-06-07T14:48:01.795Z,1.42
2019-06-07T14:50:30.503Z,1.87
2019-06-07T14:52:59.050Z,2.22
2019-06-07T14:55:28.965Z,1.95
2019-06-07T14:57:57.692Z,1.65
2019-06-07T15:00:35.301Z,1.30
2019-06-07T15:03:04.281Z,1.57
2019-06-07T15:05:32.980Z,1.90
2019-06-07T15:08:01.671Z,2.08
2019-06-07T15:10:31.992Z,1.52
2019-06-07T15:13:00.710Z,2.02
2019-06-07T15:15:30.685Z,1.67
2019-06-07T15:17:59.499Z,1.72
2019-06-07T15:20:28.207Z,1.45
2019-06-07T15:22:57.652Z,1.50
2019-06-07T15:25:27.071Z,1.37
2019-06-07T15:27:55.801Z,1.22
2019-06-07T15:30:24.483Z,1.12
2019-06-07T15:32:53.119Z,1.15
2019-06-07T15:35:21.762Z,2.30
2019-06-07T15:37:50.296Z,1.60
2019-06-07T15:40:19.297Z,1.82
2019-06-07T15:42:52.696Z,1.50
2019-06-07T15:45:18.776Z,1.10
2019-06-07T15:47:47.389Z,1.57
2019-06-07T15:50:16.823Z,1.37
2019-06-07T15:52:45.504Z,1.62
2019-06-07T15:55:14.503Z,1.32
2019-06-07T15:57:43.521Z,1.42
2019-06-07T16:00:14.746Z,2.30
2019-06-07T16:02:43.789Z,1.57
2019-06-07T16:05:14.276Z,1.70
2019-06-07T16:07:43.646Z,2.42
2019-06-07T16:10:14.217Z,2.02
2019-06-07T16:12:58.851Z,2.22
2019-06-07T16:15:15.122Z,2.90
2019-06-07T16:17:44.012Z,3.55
2019-06-07T16:20:13.317Z,4.12
2019-06-07T16:22:42.081Z,4.78
2019-06-07T16:25:11.340Z,5.60
2019-06-07T16:27:40.587Z,5.03
2019-06-07T16:30:12.743Z,5.75
2019-06-07T16:32:42.016Z,5.78
2019-06-07T16:35:12.561Z,6.12
2019-06-07T16:37:42.788Z,5.50
2019-06-07T16:40:14.290Z,5.22
2019-06-07T16:42:43.458Z,4.42
2019-06-07T16:45:14.351Z,4.22
2019-06-07T16:47:45.957Z,4.10
2019-06-07T16:50:15.179Z,2.85
2019-06-07T16:52:44.383Z,2.52
2019-06-07T16:55:14.695Z,2.10
2019-06-07T16:57:43.423Z,2.02
2019-06-07T17:00:14.055Z,1.70
2019-06-07T17:02:42.744Z,1.95
2019-06-07T17:05:12.762Z,1.92
2019-06-07T17:07:42.513Z,1.60
2019-06-07T17:10:12.760Z,1.55
2019-06-07T17:12:42.872Z,1.32
2019-06-07T17:15:13.770Z,1.17
2019-06-07T17:17:42.994Z,1.30
2019-06-07T17:20:13.685Z,1.47
2019-06-07T17:22:43.918Z,1.22
2019-06-07T17:25:13.153Z,1.37
2019-06-07T17:27:42.128Z,1.20
2019-06-07T17:30:12.712Z,1.02
2019-06-07T17:32:50.563Z,0.95
2019-06-07T17:35:11.987Z,1.35
2019-06-07T17:37:43.210Z,1.10
2019-06-07T17:40:11.954Z,0.80
2019-06-07T17:42:40.733Z,0.98
2019-06-07T17:45:10.567Z,1.20
2019-06-07T17:47:39.255Z,1.10
2019-06-07T17:50:09.739Z,1.40
2019-06-07T17:52:38.283Z,1.65
2019-06-07T17:55:08.772Z,1.80
2019-06-07T17:57:37.529Z,1.70
2019-06-07T18:00:28.217Z,1.10
2019-06-07T18:02:44.824Z,1.50
2019-06-07T18:05:13.600Z,1.27
2019-06-07T18:07:45.337Z,1.10
2019-06-07T18:10:17.054Z,0.70
2019-06-07T18:12:46.054Z,0.90
2019-06-07T18:15:15.425Z,0.75
2019-06-07T18:17:44.587Z,0.80
2019-06-07T18:20:14.146Z,0.85
2019-06-07T18:22:42.941Z,1.37
2019-06-07T18:25:11.804Z,0.90
2019-06-07T18:27:40.455Z,0.85
2019-06-07T18:30:11.657Z,0.70
2019-06-07T18:32:39.943Z,1.10
2019-06-07T18:35:08.835Z,1.47
2019-06-07T18:37:37.526Z,1.72
2019-06-07T18:40:07.506Z,0.93
2019-06-07T18:42:36.174Z,1.02
2019-06-07T18:45:06.834Z,1.40
2019-06-07T18:47:35.684Z,0.98
2019-06-07T18:50:09.074Z,2.52
2019-06-07T18:52:39.414Z,1.30
2019-06-07T18:55:09.632Z,1.35
2019-06-07T18:57:38.296Z,1.70
2019-06-07T19:00:12.552Z,1.52
2019-06-07T19:02:41.338Z,1.20
2019-06-07T19:05:10.455Z,1.20
2019-06-07T19:07:39.303Z,1.40
2019-06-07T19:10:10.296Z,1.60
2019-06-07T19:12:39.098Z,1.00
2019-06-07T19:15:09.372Z,1.30
2019-06-07T19:17:38.089Z,1.47
2019-06-07T19:20:09.272Z,1.55
2019-06-07T19:22:37.985Z,1.90
2019-06-07T19:25:07.206Z,1.70
2019-06-07T19:27:35.922Z,1.80
2019-06-07T19:30:06.363Z,1.00
2019-06-07T19:32:34.980Z,1.80
2019-06-07T19:35:04.884Z,1.22
2019-06-07T19:37:33.583Z,1.12
2019-06-07T19:40:02.905Z,1.02
2019-06-07T19:42:31.704Z,1.07
2019-06-07T19:45:24.751Z,1.05
2019-06-07T19:47:30.789Z,0.95
2019-06-07T19:50:00.814Z,0.93
2019-06-07T19:52:29.555Z,1.00
2019-06-07T19:54:59.663Z,0.95
2019-06-07T19:57:28.563Z,1.07
2019-06-07T19:59:57.469Z,1.42
2019-06-07T20:02:26.344Z,1.40
2019-06-07T20:04:59.460Z,1.00
2019-06-07T20:07:25.416Z,0.70
2019-06-07T20:09:54.477Z,0.90
2019-06-07T20:12:35.499Z,1.60
2019-06-07T20:15:28.517Z,0.98
2019-06-07T20:17:46.503Z,0.70
2019-06-07T20:20:15.519Z,1.12
2019-06-07T20:22:44.235Z,1.10
2019-06-07T20:25:13.306Z,1.00
2019-06-07T20:27:41.968Z,1.37
2019-06-07T20:30:12.017Z,0.90
2019-06-07T20:32:40.718Z,0.88
2019-06-07T20:35:10.217Z,0.80
2019-06-07T20:37:38.869Z,1.05
2019-06-07T20:40:22.386Z,0.70
2019-06-07T20:42:38.902Z,1.00
2019-06-07T20:45:08.735Z,0.70
2019-06-07T20:47:37.316Z,0.90
2019-06-07T20:50:08.770Z,1.00
2019-06-07T20:52:37.690Z,0.90
2019-06-07T20:55:09.842Z,0.70
2019-06-07T20:57:38.707Z,1.10
2019-06-07T21:00:16.697Z,0.90
2019-06-07T21:02:40.670Z,0.72
2019-06-07T21:05:10.008Z,1.00
2019-06-07T21:07:38.944Z,0.95
2019-06-07T21:10:08.414Z,1.12
2019-06-07T21:12:37.260Z,0.85
2019-06-07T21:15:10.776Z,1.02
2019-06-07T21:17:37.448Z,1.00
2019-06-07T21:20:09.388Z,1.17
2019-06-07T21:22:37.623Z,1.05
2019-06-07T21:25:09.469Z,1.00
2019-06-07T21:27:38.624Z,1.20
2019-06-07T21:30:11.640Z,1.15
2019-06-07T21:32:40.965Z,0.82
2019-06-07T21:35:10.387Z,0.95
2019-06-07T21:37:39.169Z,0.82
2019-06-07T21:40:10.180Z,0.98
2019-06-07T21:42:39.560Z,0.93
2019-06-07T21:45:09.812Z,0.93
2019-06-07T21:47:39.061Z,1.25
2019-06-07T21:50:10.597Z,1.00
2019-06-07T21:52:39.523Z,1.20
2019-06-07T21:55:09.336Z,1.12
2019-06-07T21:57:38.659Z,1.10
2019-06-07T22:00:17.436Z,1.25
2019-06-07T22:02:46.479Z,1.25
2019-06-07T22:05:15.411Z,1.00
2019-06-07T22:07:44.023Z,1.20
2019-06-07T22:10:12.877Z,0.90
2019-06-07T22:12:41.390Z,0.78
2019-06-07T22:15:29.165Z,1.20
2019-06-07T22:17:40.558Z,1.07
2019-06-07T22:20:10.830Z,0.82
2019-06-07T22:22:39.613Z,1.02
2019-06-07T22:25:09.207Z,1.05
2019-06-07T22:27:38.110Z,0.80
2019-06-07T22:30:10.496Z,1.15
2019-06-07T22:32:39.288Z,0.93
2019-06-07T22:35:09.008Z,1.27
2019-06-07T22:37:37.709Z,0.98
2019-06-07T22:40:08.582Z,0.65
2019-06-07T22:42:37.818Z,0.80
2019-06-07T22:45:10.884Z,0.80
2019-06-07T22:47:39.903Z,0.80
2019-06-07T22:50:10.693Z,0.90
2019-06-07T22:52:39.639Z,1.10
2019-06-07T22:55:10.161Z,0.90
2019-06-07T22:57:55.788Z,1.00
2019-06-07T23:00:26.699Z,1.27
2019-06-07T23:02:55.610Z,0.75
2019-06-07T23:05:24.739Z,1.10
2019-06-07T23:07:53.366Z,0.80
2019-06-07T23:10:22.014Z,0.98
2019-06-07T23:12:50.577Z,0.80
2019-06-07T23:15:20.836Z,1.12
2019-06-07T23:17:49.650Z,0.90
2019-06-07T23:20:18.470Z,0.90
2019-06-07T23:22:47.081Z,0.90
2019-06-07T23:25:21.864Z,1.20
2019-06-07T23:27:46.946Z,0.90
2019-06-07T23:30:16.656Z,1.10
2019-06-07T23:32:45.443Z,0.78
2019-06-07T23:35:14.855Z,0.88
2019-06-07T23:37:43.652Z,0.82
2019-06-07T23:40:13.300Z,0.95
2019-06-07T23:42:41.868Z,1.12
2019-06-07T23:45:11.993Z,0.70
2019-06-07T23:47:40.954Z,0.82
2019-06-07T23:50:09.838Z,1.10
2019-06-07T23:52:38.416Z,0.85
2019-06-07T23:55:07.344Z,1.20
2019-06-07T23:57:36.094Z,0.78
